sensor_id;sensor_type;location;lat;lon;timestamp;P1;durP1;ratioP1;P2;durP2;ratioP2
29568;SDS011;16501;51.462;14.346;2023-06-10T00:02:19;9.77;;;6.40;;
29568;SDS011;16501;51.462;14.346;2023-06-10T00:04:45;9.13;;;7.00;;
29568;SDS011;16501;51.462;14.346;2023-06-10T00:07:10;13.32;;;7.03;;
29568;SDS011;16501;51.462;14.346;2023-06-10T00:09:36;14.60;;;7.20;;
29568;SDS011;16501;51.462;14.346;2023-06-10T00:12:02;10.10;;;6.85;;
29568;SDS011;16501;51.462;14.346;2023-06-10T00:14:32;13.32;;;6.57;;
29568;SDS011;16501;51.462;14.346;2023-06-10T00:17:02;10.90;;;6.72;;
29568;SDS011;16501;51.462;14.346;2023-06-10T00:19:27;13.32;;;7.35;;
29568;SDS011;16501;51.462;14.346;2023-06-10T00:21:58;9.07;;;7.32;;
29568;SDS011;16501;51.462;14.346;2023-06-10T00:24:23;10.10;;;7.13;;
29568;SDS011;16501;51.462;14.346;2023-06-10T00:26:49;9.55;;;7.47;;
29568;SDS011;16501;51.462;14.346;2023-06-10T00:29:14;11.63;;;7.55;;
29568;SDS011;16501;51.462;14.346;2023-06-10T00:31:40;11.85;;;7.03;;
29568;SDS011;16501;51.462;14.346;2023-06-10T00:34:06;9.10;;;7.45;;
29568;SDS011;16501;51.462;14.346;2023-06-10T00:36:32;10.10;;;7.25;;
29568;SDS011;16501;51.462;14.346;2023-06-10T00:38:57;18.33;;;8.40;;
29568;SDS011;16501;51.462;14.346;2023-06-10T00:41:23;12.82;;;7.90;;
29568;SDS011;16501;51.462;14.346;2023-06-10T00:43:48;13.48;;;8.27;;
29568;SDS011;16501;51.462;14.346;2023-06-10T00:46:13;11.18;;;8.18;;
29568;SDS011;16501;51.462;14.346;2023-06-10T00:48:40;14.32;;;8.48;;
29568;SDS011;16501;51.462;14.346;2023-06-10T00:51:07;12.48;;;8.32;;
29568;SDS011;16501;51.462;14.346;2023-06-10T00:53:34;10.25;;;8.50;;
29568;SDS011;16501;51.462;14.346;2023-06-10T00:56:00;13.25;;;8.90;;
29568;SDS011;16501;51.462;14.346;2023-06-10T00:58:25;14.45;;;7.72;;
29568;SDS011;16501;51.462;14.346;2023-06-10T01:00:51;11.95;;;8.30;;
29568;SDS011;16501;51.462;14.346;2023-06-10T01:03:17;12.25;;;8.05;;
29568;SDS011;16501;51.462;14.346;2023-06-10T01:05:43;11.77;;;8.80;;
29568;SDS011;16501;51.462;14.346;2023-06-10T01:10:51;15.98;;;10.15;;
29568;SDS011;16501;51.462;14.346;2023-06-10T01:13:20;12.63;;;8.85;;
29568;SDS011;16501;51.462;14.346;2023-06-10T01:15:49;12.73;;;9.43;;
29568;SDS011;16501;51.462;14.346;2023-06-10T01:18:15;16.17;;;8.55;;
29568;SDS011;16501;51.462;14.346;2023-06-10T01:20:41;12.85;;;9.40;;
29568;SDS011;16501;51.462;14.346;2023-06-10T01:23:08;12.05;;;9.02;;
29568;SDS011;16501;51.462;14.346;2023-06-10T01:25:37;11.82;;;8.95;;
29568;SDS011;16501;51.462;14.346;2023-06-10T01:28:09;11.25;;;8.65;;
29568;SDS011;16501;51.462;14.346;2023-06-10T01:30:48;15.93;;;9.75;;
29568;SDS011;16501;51.462;14.346;2023-06-10T01:33:27;10.15;;;9.00;;
29568;SDS011;16501;51.462;14.346;2023-06-10T01:35:54;12.25;;;9.68;;
29568;SDS011;16501;51.462;14.346;2023-06-10T01:38:22;11.75;;;9.15;;
29568;SDS011;16501;51.462;14.346;2023-06-10T01:40:51;16.05;;;9.98;;
29568;SDS011;16501;51.462;14.346;2023-06-10T01:43:18;12.65;;;8.95;;
29568;SDS011;16501;51.462;14.346;2023-06-10T01:45:45;11.88;;;9.73;;
29568;SDS011;16501;51.462;14.346;2023-06-10T01:48:10;11.55;;;9.65;;
29568;SDS011;16501;51.462;14.346;2023-06-10T01:50:35;14.15;;;9.77;;
29568;SDS011;16501;51.462;14.346;2023-06-10T01:53:01;13.98;;;8.95;;
29568;SDS011;16501;51.462;14.346;2023-06-10T01:55:26;14.20;;;9.82;;
29568;SDS011;16501;51.462;14.346;2023-06-10T01:57:51;17.13;;;8.73;;
29568;SDS011;16501;51.462;14.346;2023-06-10T02:00:17;14.10;;;9.20;;
29568;SDS011;16501;51.462;14.346;2023-06-10T02:02:42;15.57;;;9.70;;
29568;SDS011;16501;51.462;14.346;2023-06-10T02:05:07;17.02;;;9.63;;
29568;SDS011;16501;51.462;14.346;2023-06-10T02:07:32;12.88;;;9.35;;
29568;SDS011;16501;51.462;14.346;2023-06-10T02:09:58;14.05;;;9.95;;
29568;SDS011;16501;51.462;14.346;2023-06-10T02:12:23;11.63;;;10.38;;
29568;SDS011;16501;51.462;14.346;2023-06-10T02:14:48;15.55;;;10.23;;
29568;SDS011;16501;51.462;14.346;2023-06-10T02:17:14;14.65;;;10.98;;
29568;SDS011;16501;51.462;14.346;2023-06-10T02:19:39;16.67;;;10.57;;
29568;SDS011;16501;51.462;14.346;2023-06-10T02:22:07;16.85;;;9.43;;
29568;SDS011;16501;51.462;14.346;2023-06-10T02:24:36;13.90;;;9.73;;
29568;SDS011;16501;51.462;14.346;2023-06-10T02:27:02;16.92;;;10.90;;
29568;SDS011;16501;51.462;14.346;2023-06-10T02:29:31;13.38;;;9.85;;
29568;SDS011;16501;51.462;14.346;2023-06-10T02:31:57;18.15;;;10.50;;
29568;SDS011;16501;51.462;14.346;2023-06-10T02:34:22;16.45;;;10.90;;
29568;SDS011;16501;51.462;14.346;2023-06-10T02:36:47;11.75;;;10.35;;
29568;SDS011;16501;51.462;14.346;2023-06-10T02:39:16;14.00;;;11.20;;
29568;SDS011;16501;51.462;14.346;2023-06-10T02:41:41;14.77;;;11.75;;
29568;SDS011;16501;51.462;14.346;2023-06-10T02:44:06;16.52;;;11.75;;
29568;SDS011;16501;51.462;14.346;2023-06-10T02:46:31;14.02;;;11.15;;
29568;SDS011;16501;51.462;14.346;2023-06-10T02:48:57;17.70;;;10.88;;
29568;SDS011;16501;51.462;14.346;2023-06-10T02:51:22;12.82;;;10.23;;
29568;SDS011;16501;51.462;14.346;2023-06-10T02:53:47;14.98;;;11.02;;
29568;SDS011;16501;51.462;14.346;2023-06-10T02:56:13;10.82;;;9.60;;
29568;SDS011;16501;51.462;14.346;2023-06-10T02:58:40;18.50;;;10.57;;
29568;SDS011;16501;51.462;14.346;2023-06-10T03:01:06;16.98;;;10.50;;
29568;SDS011;16501;51.462;14.346;2023-06-10T03:03:32;15.07;;;9.90;;
29568;SDS011;16501;51.462;14.346;2023-06-10T03:05:58;14.90;;;10.15;;
29568;SDS011;16501;51.462;14.346;2023-06-10T03:08:24;13.10;;;10.93;;
29568;SDS011;16501;51.462;14.346;2023-06-10T03:10:50;13.40;;;11.63;;
29568;SDS011;16501;51.462;14.346;2023-06-10T03:13:15;18.65;;;10.60;;
29568;SDS011;16501;51.462;14.346;2023-06-10T03:15:41;15.85;;;11.18;;
29568;SDS011;16501;51.462;14.346;2023-06-10T03:18:06;16.17;;;10.82;;
29568;SDS011;16501;51.462;14.346;2023-06-10T03:20:32;13.50;;;11.15;;
29568;SDS011;16501;51.462;14.346;2023-06-10T03:23:02;15.65;;;11.60;;
29568;SDS011;16501;51.462;14.346;2023-06-10T03:25:29;13.35;;;10.93;;
29568;SDS011;16501;51.462;14.346;2023-06-10T03:27:55;13.27;;;10.65;;
29568;SDS011;16501;51.462;14.346;2023-06-10T03:30:20;15.88;;;11.05;;
29568;SDS011;16501;51.462;14.346;2023-06-10T03:32:46;23.10;;;12.13;;
29568;SDS011;16501;51.462;14.346;2023-06-10T03:35:11;18.70;;;11.63;;
29568;SDS011;16501;51.462;14.346;2023-06-10T03:37:37;14.63;;;11.25;;
29568;SDS011;16501;51.462;14.346;2023-06-10T03:40:02;15.48;;;11.32;;
29568;SDS011;16501;51.462;14.346;2023-06-10T03:42:28;17.67;;;11.43;;
29568;SDS011;16501;51.462;14.346;2023-06-10T03:44:53;21.30;;;10.95;;
29568;SDS011;16501;51.462;14.346;2023-06-10T03:47:20;14.73;;;10.60;;
29568;SDS011;16501;51.462;14.346;2023-06-10T03:49:46;12.05;;;10.48;;
29568;SDS011;16501;51.462;14.346;2023-06-10T03:52:11;18.55;;;11.60;;
29568;SDS011;16501;51.462;14.346;2023-06-10T03:54:36;12.50;;;10.63;;
29568;SDS011;16501;51.462;14.346;2023-06-10T03:57:01;17.23;;;11.13;;
29568;SDS011;16501;51.462;14.346;2023-06-10T03:59:28;13.63;;;10.60;;
29568;SDS011;16501;51.462;14.346;2023-06-10T04:01:54;18.52;;;11.40;;
29568;SDS011;16501;51.462;14.346;2023-06-10T04:04:20;23.77;;;11.27;;
29568;SDS011;16501;51.462;14.346;2023-06-10T04:06:45;16.88;;;10.90;;
29568;SDS011;16501;51.462;14.346;2023-06-10T04:09:11;17.27;;;11.73;;
29568;SDS011;16501;51.462;14.346;2023-06-10T04:11:37;14.48;;;10.38;;
29568;SDS011;16501;51.462;14.346;2023-06-10T04:14:03;17.67;;;11.63;;
29568;SDS011;16501;51.462;14.346;2023-06-10T04:16:28;18.13;;;12.82;;
29568;SDS011;16501;51.462;14.346;2023-06-10T04:18:53;15.93;;;12.40;;
29568;SDS011;16501;51.462;14.346;2023-06-10T04:21:19;14.50;;;11.50;;
29568;SDS011;16501;51.462;14.346;2023-06-10T04:23:44;16.30;;;13.00;;
29568;SDS011;16501;51.462;14.346;2023-06-10T04:26:12;15.40;;;11.75;;
29568;SDS011;16501;51.462;14.346;2023-06-10T04:28:37;14.93;;;11.75;;
29568;SDS011;16501;51.462;14.346;2023-06-10T04:31:02;15.65;;;13.02;;
29568;SDS011;16501;51.462;14.346;2023-06-10T04:33:29;16.65;;;12.32;;
29568;SDS011;16501;51.462;14.346;2023-06-10T04:35:55;15.98;;;11.98;;
29568;SDS011;16501;51.462;14.346;2023-06-10T04:38:20;15.63;;;12.70;;
29568;SDS011;16501;51.462;14.346;2023-06-10T04:40:46;15.02;;;12.13;;
29568;SDS011;16501;51.462;14.346;2023-06-10T04:43:11;15.60;;;13.43;;
29568;SDS011;16501;51.462;14.346;2023-06-10T04:45:37;17.67;;;14.00;;
29568;SDS011;16501;51.462;14.346;2023-06-10T04:48:03;16.13;;;13.70;;
29568;SDS011;16501;51.462;14.346;2023-06-10T04:50:28;16.13;;;13.60;;
29568;SDS011;16501;51.462;14.346;2023-06-10T04:52:53;17.08;;;14.10;;
29568;SDS011;16501;51.462;14.346;2023-06-10T04:55:22;19.55;;;13.85;;
29568;SDS011;16501;51.462;14.346;2023-06-10T04:57:47;19.13;;;14.65;;
29568;SDS011;16501;51.462;14.346;2023-06-10T05:00:13;15.88;;;14.00;;
29568;SDS011;16501;51.462;14.346;2023-06-10T05:02:39;15.70;;;13.52;;
29568;SDS011;16501;51.462;14.346;2023-06-10T05:05:04;15.52;;;13.57;;
29568;SDS011;16501;51.462;14.346;2023-06-10T05:07:29;20.83;;;14.18;;
29568;SDS011;16501;51.462;14.346;2023-06-10T05:09:54;17.50;;;13.48;;
29568;SDS011;16501;51.462;14.346;2023-06-10T05:12:20;18.73;;;13.00;;
29568;SDS011;16501;51.462;14.346;2023-06-10T05:14:45;16.25;;;13.55;;
29568;SDS011;16501;51.462;14.346;2023-06-10T05:17:11;16.20;;;13.40;;
29568;SDS011;16501;51.462;14.346;2023-06-10T05:19:37;18.45;;;13.95;;
29568;SDS011;16501;51.462;14.346;2023-06-10T05:22:03;14.13;;;12.55;;
29568;SDS011;16501;51.462;14.346;2023-06-10T05:24:30;18.70;;;12.15;;
29568;SDS011;16501;51.462;14.346;2023-06-10T05:26:56;15.68;;;13.02;;
29568;SDS011;16501;51.462;14.346;2023-06-10T05:29:21;14.27;;;12.38;;
29568;SDS011;16501;51.462;14.346;2023-06-10T05:31:49;17.17;;;11.50;;
29568;SDS011;16501;51.462;14.346;2023-06-10T05:34:14;13.90;;;11.75;;
29568;SDS011;16501;51.462;14.346;2023-06-10T05:36:39;13.27;;;11.18;;
29568;SDS011;16501;51.462;14.346;2023-06-10T05:39:04;12.40;;;10.15;;
29568;SDS011;16501;51.462;14.346;2023-06-10T05:41:30;13.90;;;11.15;;
29568;SDS011;16501;51.462;14.346;2023-06-10T05:43:55;19.25;;;11.63;;
29568;SDS011;16501;51.462;14.346;2023-06-10T05:46:21;15.23;;;11.07;;
29568;SDS011;16501;51.462;14.346;2023-06-10T05:48:46;13.73;;;11.43;;
29568;SDS011;16501;51.462;14.346;2023-06-10T05:51:11;11.85;;;9.02;;
29568;SDS011;16501;51.462;14.346;2023-06-10T05:53:37;9.85;;;8.43;;
29568;SDS011;16501;51.462;14.346;2023-06-10T05:56:03;16.73;;;10.07;;
29568;SDS011;16501;51.462;14.346;2023-06-10T05:58:28;11.68;;;10.48;;
29568;SDS011;16501;51.462;14.346;2023-06-10T06:00:54;14.43;;;11.48;;
29568;SDS011;16501;51.462;14.346;2023-06-10T06:03:19;15.77;;;11.30;;
29568;SDS011;16501;51.462;14.346;2023-06-10T06:05:44;13.85;;;10.88;;
29568;SDS011;16501;51.462;14.346;2023-06-10T06:08:10;13.88;;;10.43;;
29568;SDS011;16501;51.462;14.346;2023-06-10T06:10:36;11.00;;;9.85;;
29568;SDS011;16501;51.462;14.346;2023-06-10T06:13:01;11.85;;;10.00;;
29568;SDS011;16501;51.462;14.346;2023-06-10T06:15:27;13.73;;;9.93;;
29568;SDS011;16501;51.462;14.346;2023-06-10T06:17:53;12.25;;;10.32;;
29568;SDS011;16501;51.462;14.346;2023-06-10T06:20:19;16.60;;;11.38;;
29568;SDS011;16501;51.462;14.346;2023-06-10T06:22:45;17.48;;;11.43;;
29568;SDS011;16501;51.462;14.346;2023-06-10T06:25:10;13.45;;;10.35;;
29568;SDS011;16501;51.462;14.346;2023-06-10T06:27:35;12.07;;;10.50;;
29568;SDS011;16501;51.462;14.346;2023-06-10T06:30:00;12.10;;;10.65;;
29568;SDS011;16501;51.462;14.346;2023-06-10T06:32:26;13.77;;;9.80;;
29568;SDS011;16501;51.462;14.346;2023-06-10T06:34:52;15.27;;;10.98;;
29568;SDS011;16501;51.462;14.346;2023-06-10T06:37:20;11.70;;;10.38;;
29568;SDS011;16501;51.462;14.346;2023-06-10T06:39:46;12.27;;;10.45;;
29568;SDS011;16501;51.462;14.346;2023-06-10T06:42:11;14.10;;;10.77;;
29568;SDS011;16501;51.462;14.346;2023-06-10T06:44:37;12.75;;;10.43;;
29568;SDS011;16501;51.462;14.346;2023-06-10T06:47:02;14.88;;;10.40;;
29568;SDS011;16501;51.462;14.346;2023-06-10T06:49:28;13.50;;;11.30;;
29568;SDS011;16501;51.462;14.346;2023-06-10T06:51:53;16.13;;;10.88;;
29568;SDS011;16501;51.462;14.346;2023-06-10T06:54:18;14.15;;;11.35;;
29568;SDS011;16501;51.462;14.346;2023-06-10T06:56:43;13.00;;;11.45;;
29568;SDS011;16501;51.462;14.346;2023-06-10T06:59:09;17.20;;;11.73;;
29568;SDS011;16501;51.462;14.346;2023-06-10T07:01:38;14.63;;;11.32;;
29568;SDS011;16501;51.462;14.346;2023-06-10T07:04:04;13.38;;;11.98;;
29568;SDS011;16501;51.462;14.346;2023-06-10T07:06:29;16.52;;;11.73;;
29568;SDS011;16501;51.462;14.346;2023-06-10T07:08:54;12.50;;;11.20;;
29568;SDS011;16501;51.462;14.346;2023-06-10T07:11:19;12.52;;;11.07;;
29568;SDS011;16501;51.462;14.346;2023-06-10T07:13:45;11.18;;;10.05;;
29568;SDS011;16501;51.462;14.346;2023-06-10T07:16:10;11.00;;;9.88;;
29568;SDS011;16501;51.462;14.346;2023-06-10T07:18:35;16.52;;;10.57;;
29568;SDS011;16501;51.462;14.346;2023-06-10T07:21:01;11.77;;;10.57;;
29568;SDS011;16501;51.462;14.346;2023-06-10T07:23:29;11.88;;;10.65;;
29568;SDS011;16501;51.462;14.346;2023-06-10T07:25:55;18.85;;;9.93;;
29568;SDS011;16501;51.462;14.346;2023-06-10T07:28:20;13.60;;;8.85;;
29568;SDS011;16501;51.462;14.346;2023-06-10T07:30:45;10.57;;;9.48;;
29568;SDS011;16501;51.462;14.346;2023-06-10T07:33:10;12.32;;;9.10;;
29568;SDS011;16501;51.462;14.346;2023-06-10T07:35:36;11.82;;;9.00;;
29568;SDS011;16501;51.462;14.346;2023-06-10T07:38:01;12.88;;;8.60;;
29568;SDS011;16501;51.462;14.346;2023-06-10T07:40:26;18.30;;;8.93;;
29568;SDS011;16501;51.462;14.346;2023-06-10T07:42:52;12.25;;;8.70;;
29568;SDS011;16501;51.462;14.346;2023-06-10T07:45:18;15.00;;;9.10;;
29568;SDS011;16501;51.462;14.346;2023-06-10T07:47:43;10.80;;;8.63;;
29568;SDS011;16501;51.462;14.346;2023-06-10T07:50:08;10.45;;;8.77;;
29568;SDS011;16501;51.462;14.346;2023-06-10T07:52:34;14.18;;;8.15;;
29568;SDS011;16501;51.462;14.346;2023-06-10T07:54:59;15.40;;;8.05;;
29568;SDS011;16501;51.462;14.346;2023-06-10T07:57:25;14.18;;;7.63;;
29568;SDS011;16501;51.462;14.346;2023-06-10T07:59:50;9.20;;;7.88;;
29568;SDS011;16501;51.462;14.346;2023-06-10T08:02:15;12.65;;;8.38;;
29568;SDS011;16501;51.462;14.346;2023-06-10T08:04:41;10.75;;;8.10;;
29568;SDS011;16501;51.462;14.346;2023-06-10T08:07:06;12.20;;;8.18;;
29568;SDS011;16501;51.462;14.346;2023-06-10T08:09:31;13.20;;;7.40;;
29568;SDS011;16501;51.462;14.346;2023-06-10T08:11:56;9.20;;;8.10;;
29568;SDS011;16501;51.462;14.346;2023-06-10T08:14:22;11.32;;;7.82;;
29568;SDS011;16501;51.462;14.346;2023-06-10T08:16:47;7.95;;;7.13;;
29568;SDS011;16501;51.462;14.346;2023-06-10T08:19:12;9.05;;;6.97;;
29568;SDS011;16501;51.462;14.346;2023-06-10T08:21:37;7.68;;;6.07;;
29568;SDS011;16501;51.462;14.346;2023-06-10T08:24:04;15.05;;;6.43;;
29568;SDS011;16501;51.462;14.346;2023-06-10T08:26:30;8.25;;;6.53;;
29568;SDS011;16501;51.462;14.346;2023-06-10T08:28:56;10.15;;;5.75;;
29568;SDS011;16501;51.462;14.346;2023-06-10T08:31:21;8.40;;;5.63;;
29568;SDS011;16501;51.462;14.346;2023-06-10T08:33:46;10.57;;;6.43;;
29568;SDS011;16501;51.462;14.346;2023-06-10T08:36:12;11.95;;;6.32;;
29568;SDS011;16501;51.462;14.346;2023-06-10T08:38:37;6.55;;;5.18;;
29568;SDS011;16501;51.462;14.346;2023-06-10T08:41:02;8.63;;;5.40;;
29568;SDS011;16501;51.462;14.346;2023-06-10T08:43:32;6.57;;;5.03;;
29568;SDS011;16501;51.462;14.346;2023-06-10T08:48:29;10.10;;;4.93;;
29568;SDS011;16501;51.462;14.346;2023-06-10T08:50:56;6.43;;;5.35;;
29568;SDS011;16501;51.462;14.346;2023-06-10T08:53:22;7.32;;;5.35;;
29568;SDS011;16501;51.462;14.346;2023-06-10T08:55:52;8.23;;;4.90;;
29568;SDS011;16501;51.462;14.346;2023-06-10T08:58:20;5.30;;;4.55;;
29568;SDS011;16501;51.462;14.346;2023-06-10T09:00:46;7.65;;;5.28;;
29568;SDS011;16501;51.462;14.346;2023-06-10T09:03:11;8.18;;;4.60;;
29568;SDS011;16501;51.462;14.346;2023-06-10T09:05:37;8.05;;;5.00;;
29568;SDS011;16501;51.462;14.346;2023-06-10T09:08:03;6.13;;;5.53;;
29568;SDS011;16501;51.462;14.346;2023-06-10T09:10:30;10.60;;;6.28;;
29568;SDS011;16501;51.462;14.346;2023-06-10T09:12:55;9.65;;;6.20;;
29568;SDS011;16501;51.462;14.346;2023-06-10T09:15:21;11.45;;;5.85;;
29568;SDS011;16501;51.462;14.346;2023-06-10T09:17:47;8.73;;;6.07;;
29568;SDS011;16501;51.462;14.346;2023-06-10T09:20:12;10.63;;;6.00;;
29568;SDS011;16501;51.462;14.346;2023-06-10T09:22:38;8.15;;;5.85;;
29568;SDS011;16501;51.462;14.346;2023-06-10T09:25:04;8.57;;;6.30;;
29568;SDS011;16501;51.462;14.346;2023-06-10T09:27:32;7.53;;;5.93;;
29568;SDS011;16501;51.462;14.346;2023-06-10T09:29:57;7.53;;;6.22;;
29568;SDS011;16501;51.462;14.346;2023-06-10T09:32:23;11.45;;;7.07;;
29568;SDS011;16501;51.462;14.346;2023-06-10T09:34:49;11.63;;;6.97;;
29568;SDS011;16501;51.462;14.346;2023-06-10T09:37:25;10.48;;;6.90;;
29568;SDS011;16501;51.462;14.346;2023-06-10T09:40:03;14.35;;;6.05;;
29568;SDS011;16501;51.462;14.346;2023-06-10T09:42:32;10.80;;;6.05;;
29568;SDS011;16501;51.462;14.346;2023-06-10T09:45:00;8.48;;;5.30;;
29568;SDS011;16501;51.462;14.346;2023-06-10T09:47:25;5.35;;;4.85;;
29568;SDS011;16501;51.462;14.346;2023-06-10T09:49:50;8.02;;;5.25;;
29568;SDS011;16501;51.462;14.346;2023-06-10T09:52:21;9.98;;;5.68;;
29568;SDS011;16501;51.462;14.346;2023-06-10T09:54:48;8.93;;;5.60;;
29568;SDS011;16501;51.462;14.346;2023-06-10T09:57:13;10.00;;;6.20;;
29568;SDS011;16501;51.462;14.346;2023-06-10T09:59:39;8.13;;;5.60;;
29568;SDS011;16501;51.462;14.346;2023-06-10T10:02:04;8.60;;;5.35;;
29568;SDS011;16501;51.462;14.346;2023-06-10T10:04:30;14.45;;;5.85;;
29568;SDS011;16501;51.462;14.346;2023-06-10T10:06:56;6.90;;;4.75;;
29568;SDS011;16501;51.462;14.346;2023-06-10T10:09:21;9.73;;;5.68;;
29568;SDS011;16501;51.462;14.346;2023-06-10T10:11:47;8.20;;;5.35;;
29568;SDS011;16501;51.462;14.346;2023-06-10T10:14:13;6.18;;;5.10;;
29568;SDS011;16501;51.462;14.346;2023-06-10T10:16:43;7.97;;;5.40;;
29568;SDS011;16501;51.462;14.346;2023-06-10T10:19:11;6.22;;;5.25;;
29568;SDS011;16501;51.462;14.346;2023-06-10T10:21:52;7.95;;;5.72;;
29568;SDS011;16501;51.462;14.346;2023-06-10T10:24:23;8.13;;;5.85;;
29568;SDS011;16501;51.462;14.346;2023-06-10T10:26:55;7.70;;;5.40;;
29568;SDS011;16501;51.462;14.346;2023-06-10T10:31:56;10.45;;;5.70;;
29568;SDS011;16501;51.462;14.346;2023-06-10T10:34:35;6.47;;;5.68;;
29568;SDS011;16501;51.462;14.346;2023-06-10T10:37:07;13.45;;;5.75;;
29568;SDS011;16501;51.462;14.346;2023-06-10T10:39:33;14.20;;;6.33;;
29568;SDS011;16501;51.462;14.346;2023-06-10T10:42:01;12.10;;;5.40;;
29568;SDS011;16501;51.462;14.346;2023-06-10T10:44:28;10.32;;;5.72;;
29568;SDS011;16501;51.462;14.346;2023-06-10T10:46:54;7.07;;;5.53;;
29568;SDS011;16501;51.462;14.346;2023-06-10T10:49:21;9.10;;;5.03;;
29568;SDS011;16501;51.462;14.346;2023-06-10T10:51:54;12.63;;;5.68;;
29568;SDS011;16501;51.462;14.346;2023-06-10T10:54:21;6.22;;;5.13;;
29568;SDS011;16501;51.462;14.346;2023-06-10T11:02:16;7.47;;;5.40;;
29568;SDS011;16501;51.462;14.346;2023-06-10T11:04:46;10.52;;;5.95;;
29568;SDS011;16501;51.462;14.346;2023-06-10T11:07:12;9.15;;;5.90;;
29568;SDS011;16501;51.462;14.346;2023-06-10T11:09:42;8.10;;;6.18;;
29568;SDS011;16501;51.462;14.346;2023-06-10T11:12:23;8.65;;;5.53;;
29568;SDS011;16501;51.462;14.346;2023-06-10T11:14:53;11.60;;;6.05;;
29568;SDS011;16501;51.462;14.346;2023-06-10T11:17:20;9.85;;;5.95;;
29568;SDS011;16501;51.462;14.346;2023-06-10T11:19:46;8.32;;;5.72;;
29568;SDS011;16501;51.462;14.346;2023-06-10T11:22:15;11.35;;;6.13;;
29568;SDS011;16501;51.462;14.346;2023-06-10T11:24:41;12.02;;;5.65;;
29568;SDS011;16501;51.462;14.346;2023-06-10T11:27:19;7.07;;;5.85;;
29568;SDS011;16501;51.462;14.346;2023-06-10T11:29:58;9.45;;;5.30;;
29568;SDS011;16501;51.462;14.346;2023-06-10T11:32:43;10.10;;;5.03;;
29568;SDS011;16501;51.462;14.346;2023-06-10T11:35:08;6.18;;;5.07;;
29568;SDS011;16501;51.462;14.346;2023-06-10T11:37:34;11.43;;;5.70;;
29568;SDS011;16501;51.462;14.346;2023-06-10T11:40:00;11.80;;;5.85;;
29568;SDS011;16501;51.462;14.346;2023-06-10T11:42:27;12.02;;;5.25;;
29568;SDS011;16501;51.462;14.346;2023-06-10T11:44:53;10.40;;;6.13;;
29568;SDS011;16501;51.462;14.346;2023-06-10T11:47:19;10.35;;;6.75;;
29568;SDS011;16501;51.462;14.346;2023-06-10T11:49:45;20.42;;;5.53;;
29568;SDS011;16501;51.462;14.346;2023-06-10T11:52:31;14.88;;;5.43;;
29568;SDS011;16501;51.462;14.346;2023-06-10T11:54:58;13.77;;;4.78;;
29568;SDS011;16501;51.462;14.346;2023-06-10T11:57:34;12.95;;;5.15;;
29568;SDS011;16501;51.462;14.346;2023-06-10T12:00:04;13.50;;;5.25;;
29568;SDS011;16501;51.462;14.346;2023-06-10T12:02:30;8.70;;;5.10;;
29568;SDS011;16501;51.462;14.346;2023-06-10T12:05:09;7.55;;;5.95;;
29568;SDS011;16501;51.462;14.346;2023-06-10T12:07:35;6.40;;;4.57;;
29568;SDS011;16501;51.462;14.346;2023-06-10T12:10:00;10.83;;;5.47;;
29568;SDS011;16501;51.462;14.346;2023-06-10T12:12:25;6.82;;;5.38;;
29568;SDS011;16501;51.462;14.346;2023-06-10T12:14:58;14.35;;;5.35;;
29568;SDS011;16501;51.462;14.346;2023-06-10T12:20:02;7.68;;;5.00;;
29568;SDS011;16501;51.462;14.346;2023-06-10T12:22:40;7.63;;;4.97;;
29568;SDS011;16501;51.462;14.346;2023-06-10T12:25:07;7.88;;;5.10;;
29568;SDS011;16501;51.462;14.346;2023-06-10T12:27:34;7.18;;;4.68;;
29568;SDS011;16501;51.462;14.346;2023-06-10T12:30:00;7.20;;;4.50;;
29568;SDS011;16501;51.462;14.346;2023-06-10T12:32:41;6.70;;;4.63;;
29568;SDS011;16501;51.462;14.346;2023-06-10T12:35:08;10.27;;;4.55;;
29568;SDS011;16501;51.462;14.346;2023-06-10T12:37:35;10.40;;;5.03;;
29568;SDS011;16501;51.462;14.346;2023-06-10T12:40:04;6.47;;;4.95;;
29568;SDS011;16501;51.462;14.346;2023-06-10T12:42:31;8.95;;;4.57;;
29568;SDS011;16501;51.462;14.346;2023-06-10T12:44:59;9.20;;;4.45;;
29568;SDS011;16501;51.462;14.346;2023-06-10T12:47:30;6.10;;;4.47;;
29568;SDS011;16501;51.462;14.346;2023-06-10T12:50:00;7.63;;;4.68;;
29568;SDS011;16501;51.462;14.346;2023-06-10T12:52:26;9.73;;;4.55;;
29568;SDS011;16501;51.462;14.346;2023-06-10T12:54:53;9.48;;;4.25;;
29568;SDS011;16501;51.462;14.346;2023-06-10T12:57:19;6.25;;;4.45;;
29568;SDS011;16501;51.462;14.346;2023-06-10T12:59:45;7.13;;;4.57;;
29568;SDS011;16501;51.462;14.346;2023-06-10T13:02:15;11.02;;;4.55;;
29568;SDS011;16501;51.462;14.346;2023-06-10T13:04:41;13.32;;;4.57;;
29568;SDS011;16501;51.462;14.346;2023-06-10T13:07:07;16.85;;;4.43;;
29568;SDS011;16501;51.462;14.346;2023-06-10T13:09:32;8.57;;;4.25;;
29568;SDS011;16501;51.462;14.346;2023-06-10T13:11:58;9.70;;;4.55;;
29568;SDS011;16501;51.462;14.346;2023-06-10T13:14:24;6.07;;;4.53;;
29568;SDS011;16501;51.462;14.346;2023-06-10T13:16:50;4.82;;;3.90;;
29568;SDS011;16501;51.462;14.346;2023-06-10T13:19:15;6.72;;;4.40;;
29568;SDS011;16501;51.462;14.346;2023-06-10T13:21:41;8.80;;;5.03;;
29568;SDS011;16501;51.462;14.346;2023-06-10T13:24:06;7.57;;;4.97;;
29568;SDS011;16501;51.462;14.346;2023-06-10T13:26:32;10.23;;;4.57;;
29568;SDS011;16501;51.462;14.346;2023-06-10T13:28:57;15.05;;;5.07;;
29568;SDS011;16501;51.462;14.346;2023-06-10T13:31:22;7.78;;;4.32;;
29568;SDS011;16501;51.462;14.346;2023-06-10T13:33:48;9.98;;;5.10;;
29568;SDS011;16501;51.462;14.346;2023-06-10T13:36:13;6.97;;;5.07;;
29568;SDS011;16501;51.462;14.346;2023-06-10T13:38:38;10.32;;;4.93;;
29568;SDS011;16501;51.462;14.346;2023-06-10T13:41:04;7.68;;;4.70;;
29568;SDS011;16501;51.462;14.346;2023-06-10T13:43:29;6.28;;;4.65;;
29568;SDS011;16501;51.462;14.346;2023-06-10T13:45:54;5.68;;;4.13;;
29568;SDS011;16501;51.462;14.346;2023-06-10T13:48:20;12.05;;;5.25;;
29568;SDS011;16501;51.462;14.346;2023-06-10T13:50:45;5.68;;;4.95;;
29568;SDS011;16501;51.462;14.346;2023-06-10T13:53:11;8.85;;;4.85;;
29568;SDS011;16501;51.462;14.346;2023-06-10T13:55:37;7.22;;;5.22;;
29568;SDS011;16501;51.462;14.346;2023-06-10T13:58:02;5.72;;;4.93;;
29568;SDS011;16501;51.462;14.346;2023-06-10T14:00:28;7.70;;;4.97;;
29568;SDS011;16501;51.462;14.346;2023-06-10T14:02:53;7.18;;;4.57;;
29568;SDS011;16501;51.462;14.346;2023-06-10T14:05:18;5.22;;;4.10;;
29568;SDS011;16501;51.462;14.346;2023-06-10T14:07:44;7.53;;;4.45;;
29568;SDS011;16501;51.462;14.346;2023-06-10T14:10:09;10.77;;;5.25;;
29568;SDS011;16501;51.462;14.346;2023-06-10T14:12:35;12.18;;;4.95;;
29568;SDS011;16501;51.462;14.346;2023-06-10T14:15:00;6.57;;;3.97;;
29568;SDS011;16501;51.462;14.346;2023-06-10T14:17:26;10.00;;;4.57;;
29568;SDS011;16501;51.462;14.346;2023-06-10T14:19:51;9.70;;;4.20;;
29568;SDS011;16501;51.462;14.346;2023-06-10T14:22:16;8.68;;;4.40;;
29568;SDS011;16501;51.462;14.346;2023-06-10T14:24:42;8.97;;;4.43;;
29568;SDS011;16501;51.462;14.346;2023-06-10T14:27:07;6.00;;;3.90;;
29568;SDS011;16501;51.462;14.346;2023-06-10T14:29:32;9.37;;;4.30;;
29568;SDS011;16501;51.462;14.346;2023-06-10T14:31:59;7.65;;;4.18;;
29568;SDS011;16501;51.462;14.346;2023-06-10T14:34:24;8.85;;;4.68;;